Time;durP1;ratioP1;P1;durP2;ratioP2;P2;SDS_P1;SDS_P2;PMS_P1;PMS_P2;Temp;Humidity;BMP_temperature;BMP_pressure;BME280_temperature;BME280_humidity;BME280_pressure;Samples;Min_cycle;Max_cycle;Signal;HPM_P1;HPM_P2
2022/07/09 00:01:09;;;;;;;4.07;1.25;;;;;;;-148.56;100.00;61375.16;5078635;28;20553;-30
2022/07/09 00:04:33;;;;;;;2.13;1.40;;;;;;;-148.56;100.00;61375.16;5071416;28;20024;-33
2022/07/09 00:07:57;;;;;;;2.60;1.20;;;;;;;-148.56;100.00;61375.16;5073802;28;20843;-31
2022/07/09 00:11:21;;;;;;;2.40;1.08;;;;;;;-148.56;100.00;61375.16;5073839;28;20071;-30
2022/07/09 00:14:45;;;;;;;1.55;1.00;;;;;;;-148.56;100.00;61375.16;5072170;28;20085;-31
2022/07/09 00:18:09;;;;;;;2.85;1.25;;;;;;;-148.56;100.00;61375.16;5072396;28;20115;-30
2022/07/09 00:21:32;;;;;;;2.60;1.38;;;;;;;-148.56;100.00;61375.16;5076280;28;20112;-30
2022/07/09 00:24:56;;;;;;;1.92;1.45;;;;;;;-148.56;100.00;61375.16;5072969;28;20031;-30
2022/07/09 00:28:20;;;;;;;1.80;1.10;;;;;;;-148.56;100.00;61375.16;5079235;28;21597;-35
2022/07/09 00:31:45;;;;;;;1.77;1.05;;;;;;;-148.56;100.00;61375.16;5075646;28;20023;-29
2022/07/09 00:35:09;;;;;;;2.45;1.30;;;;;;;-148.56;100.00;61375.16;5078610;28;20031;-33
2022/07/09 00:38:33;;;;;;;3.35;1.20;;;;;;;-148.56;100.00;61375.16;5080461;28;20718;-33
2022/07/09 00:42:04;;;;;;;1.80;1.00;;;;;;;-148.56;100.00;61375.16;5071132;28;20147;-31
2022/07/09 00:45:28;;;;;;;2.30;1.30;;;;;;;-148.56;100.00;61375.16;5074243;28;20027;-30
2022/07/09 00:48:52;;;;;;;2.33;1.08;;;;;;;-148.56;100.00;61375.16;5076062;28;20027;-31
2022/07/09 00:52:17;;;;;;;1.33;0.73;;;;;;;-148.56;100.00;61375.16;5080276;28;20046;-31
2022/07/09 00:55:41;;;;;;;1.50;1.00;;;;;;;-148.56;100.00;61375.16;5060652;28;20028;-29
2022/07/09 00:59:09;;;;;;;1.63;1.10;;;;;;;-148.56;100.00;61375.16;5077340;28;20727;-30
2022/07/09 01:02:33;;;;;;;1.35;0.90;;;;;;;-148.56;100.00;61375.16;5077531;28;20616;-31
2022/07/09 01:05:57;;;;;;;1.63;1.00;;;;;;;-148.56;100.00;61375.16;5078978;28;20158;-32
2022/07/09 01:09:21;;;;;;;1.73;0.95;;;;;;;-148.56;100.00;61375.16;5083797;28;20039;-31
2022/07/09 01:12:45;;;;;;;1.83;1.05;;;;;;;-148.56;100.00;61375.16;5078923;28;20036;-33
2022/07/09 01:16:13;;;;;;;2.15;1.23;;;;;;;-148.56;100.00;61375.16;5076913;28;20742;-30
2022/07/09 01:19:37;;;;;;;1.20;1.00;;;;;;;-148.56;100.00;61375.16;5072121;28;20036;-32
2022/07/09 01:23:01;;;;;;;3.63;1.20;;;;;;;-148.56;100.00;61375.16;5079089;28;20481;-34
2022/07/09 01:26:35;;;;;;;1.17;0.90;;;;;;;-148.56;100.00;61375.16;5080608;28;20035;-34
2022/07/09 01:29:59;;;;;;;1.20;0.90;;;;;;;-148.56;100.00;61375.16;5079924;28;20028;-31
2022/07/09 01:33:24;;;;;;;1.50;0.85;;;;;;;-148.56;100.00;61375.16;5077064;28;20059;-33
2022/07/09 01:36:48;;;;;;;2.20;0.82;;;;;;;-148.56;100.00;61375.16;5077384;28;20043;-30
2022/07/09 01:40:12;;;;;;;1.55;0.85;;;;;;;-148.56;100.00;61375.16;5077047;28;20059;-31
2022/07/09 01:43:36;;;;;;;1.50;0.90;;;;;;;-148.56;100.00;61375.16;5070349;28;20571;-31
2022/07/09 01:46:59;;;;;;;1.85;1.02;;;;;;;-148.56;100.00;61375.16;5075329;28;20032;-32
2022/07/09 01:50:23;;;;;;;2.63;1.00;;;;;;;-148.56;100.00;61375.16;5074477;28;20662;-31
2022/07/09 01:53:47;;;;;;;1.50;1.08;;;;;;;-148.56;100.00;61375.16;5083332;28;20093;-31
2022/07/09 01:57:11;;;;;;;1.90;0.98;;;;;;;-148.56;100.00;61375.16;5083370;28;20035;-33
2022/07/09 02:00:35;;;;;;;0.95;0.82;;;;;;;-148.56;100.00;61375.16;5079473;28;20483;-30
2022/07/09 02:03:59;;;;;;;1.55;0.60;;;;;;;-148.56;100.00;61375.16;5076222;28;20052;-32
2022/07/09 02:07:23;;;;;;;1.13;0.90;;;;;;;-148.56;100.00;61375.16;5080215;28;20015;-34
2022/07/09 02:10:47;;;;;;;3.40;1.00;;;;;;;-148.56;100.00;61375.16;5083414;28;20069;-31
2022/07/09 02:14:11;;;;;;;1.75;0.77;;;;;;;-148.56;100.00;61375.16;5084655;28;20705;-32
2022/07/09 02:17:35;;;;;;;0.98;0.80;;;;;;;-148.56;100.00;61375.16;5083241;28;20031;-31
2022/07/09 02:20:59;;;;;;;1.55;0.90;;;;;;;-148.56;100.00;61375.16;5081107;28;20024;-31
2022/07/09 02:24:22;;;;;;;0.95;0.80;;;;;;;-148.56;100.00;61375.16;5080904;28;20024;-30
2022/07/09 02:27:46;;;;;;;1.80;1.02;;;;;;;-148.56;100.00;61375.16;5075021;28;20038;-34
2022/07/09 02:31:11;;;;;;;1.67;0.95;;;;;;;-148.56;100.00;61375.16;5080000;28;20031;-30
2022/07/09 02:34:36;;;;;;;1.23;0.82;;;;;;;-148.56;100.00;61375.16;5079418;28;20036;-32
2022/07/09 02:38:00;;;;;;;0.82;0.73;;;;;;;-148.56;100.00;61375.16;5080137;28;20055;-30
2022/07/09 02:41:24;;;;;;;1.00;0.75;;;;;;;-148.56;100.00;61375.16;5078445;28;20714;-31
2022/07/09 02:44:48;;;;;;;0.88;0.80;;;;;;;-148.56;100.00;61375.16;5078890;28;20067;-31
2022/07/09 02:48:12;;;;;;;0.88;0.77;;;;;;;-148.56;100.00;61375.16;5080154;28;20059;-33
2022/07/09 02:51:36;;;;;;;1.45;0.88;;;;;;;-148.56;100.00;61375.16;5083428;28;20027;-30
2022/07/09 02:54:59;;;;;;;1.17;0.90;;;;;;;-148.56;100.00;61375.16;5082488;28;20027;-31
2022/07/09 02:58:23;;;;;;;1.05;0.80;;;;;;;-148.56;100.00;61375.16;5081711;28;20031;-34
2022/07/09 03:01:47;;;;;;;1.20;0.88;;;;;;;-148.56;100.00;61375.16;5073341;28;20024;-34
2022/07/09 03:05:11;;;;;;;0.70;0.70;;;;;;;-148.56;100.00;61375.16;5079058;28;20031;-31
2022/07/09 03:08:35;;;;;;;1.27;0.73;;;;;;;-148.56;100.00;61375.16;5081451;28;20085;-30
2022/07/09 03:11:59;;;;;;;0.55;0.50;;;;;;;-148.56;100.00;61375.16;5081555;28;20027;-33
2022/07/09 03:15:23;;;;;;;0.90;0.63;;;;;;;-148.56;100.00;61375.16;5078456;28;20526;-34
2022/07/09 03:18:46;;;;;;;1.05;0.75;;;;;;;-148.56;100.00;61375.16;5081140;28;20122;-38
2022/07/09 03:22:11;;;;;;;2.50;0.80;;;;;;;-148.56;100.00;61375.16;5076614;28;20028;-33
2022/07/09 03:25:35;;;;;;;0.70;0.50;;;;;;;-148.56;100.00;61375.16;5077337;28;20031;-31
2022/07/09 03:28:59;;;;;;;0.60;0.40;;;;;;;-148.56;100.00;61375.16;5078875;28;20027;-33
2022/07/09 03:32:24;;;;;;;1.05;0.60;;;;;;;-148.56;100.00;61375.16;5072261;28;20063;-32
2022/07/09 03:35:48;;;;;;;1.67;0.88;;;;;;;-148.56;100.00;61375.16;5079878;28;20274;-32
2022/07/09 03:39:11;;;;;;;0.82;0.70;;;;;;;-148.56;100.00;61375.16;5081075;28;20062;-32
2022/07/09 03:42:35;;;;;;;1.10;0.70;;;;;;;-148.56;100.00;61375.16;5074629;28;20055;-31
2022/07/09 03:45:59;;;;;;;0.55;0.55;;;;;;;-148.56;100.00;61375.16;5075241;28;20663;-31
2022/07/09 03:49:23;;;;;;;1.30;0.70;;;;;;;-148.56;100.00;61375.16;5075885;28;20031;-33
2022/07/09 03:52:47;;;;;;;1.63;0.80;;;;;;;-148.56;100.00;61375.16;5078709;28;20049;-30
2022/07/09 03:56:12;;;;;;;0.50;0.47;;;;;;;-148.56;100.00;61375.16;5073565;28;20043;-30
2022/07/09 03:59:35;;;;;;;1.25;0.75;;;;;;;-148.56;100.00;61375.16;5081808;28;20408;-30
2022/07/09 04:02:59;;;;;;;2.10;0.70;;;;;;;-148.56;100.00;61375.16;5079578;28;20024;-30
2022/07/09 04:06:23;;;;;;;1.05;0.60;;;;;;;-148.56;100.00;61375.16;5067637;28;20047;-30
2022/07/09 04:09:47;;;;;;;1.02;0.63;;;;;;;-148.56;100.00;61375.16;5076784;28;20035;-30
2022/07/09 04:13:11;;;;;;;0.40;0.40;;;;;;;-148.56;100.00;61375.16;5073784;28;20035;-29
2022/07/09 04:16:35;;;;;;;1.45;0.60;;;;;;;-148.56;100.00;61375.16;5078592;28;20043;-30
2022/07/09 04:19:59;;;;;;;0.68;0.47;;;;;;;-148.56;100.00;61375.16;5078673;28;20046;-33
2022/07/09 04:23:23;;;;;;;1.90;0.60;;;;;;;-148.56;100.00;61375.16;5078260;28;20055;-31
2022/07/09 04:26:47;;;;;;;0.77;0.63;;;;;;;-148.56;100.00;61375.16;5074330;28;20034;-33
2022/07/09 04:30:11;;;;;;;2.58;0.70;;;;;;;-148.56;100.00;61375.16;5081989;28;20031;-33
2022/07/09 04:33:35;;;;;;;1.52;0.68;;;;;;;-148.56;100.00;61375.16;5077085;28;20804;-33
2022/07/09 04:36:59;;;;;;;1.95;0.70;;;;;;;-148.56;100.00;61375.16;5080362;28;20028;-31
2022/07/09 04:40:23;;;;;;;2.88;0.60;;;;;;;-148.56;100.00;61375.16;5080590;28;20047;-32
2022/07/09 04:43:47;;;;;;;1.33;0.60;;;;;;;-148.56;100.00;61375.16;5080791;28;21025;-31
2022/07/09 04:47:10;;;;;;;1.35;0.60;;;;;;;-148.56;100.00;61375.16;5075863;28;20497;-31
2022/07/09 04:50:34;;;;;;;2.15;0.63;;;;;;;-148.56;100.00;61375.16;5076526;28;20128;-31
2022/07/09 04:53:58;;;;;;;1.02;0.60;;;;;;;-148.56;100.00;61375.16;5077134;28;20047;-29
2022/07/09 04:57:22;;;;;;;1.08;0.57;;;;;;;-148.56;100.00;61375.16;5078110;28;20028;-29
2022/07/09 05:00:46;;;;;;;0.80;0.50;;;;;;;-148.56;100.00;61375.16;5078586;28;20080;-30
2022/07/09 05:04:10;;;;;;;1.08;0.77;;;;;;;-148.56;100.00;61375.16;5074158;28;20054;-30
2022/07/09 05:07:34;;;;;;;0.88;0.70;;;;;;;-148.56;100.00;61375.16;5071570;28;20031;-31
2022/07/09 05:10:58;;;;;;;1.23;0.73;;;;;;;-148.56;100.00;61375.16;5074923;28;20402;-30
2022/07/09 05:14:22;;;;;;;1.30;0.63;;;;;;;-148.56;100.00;61375.16;5074741;28;20100;-30
2022/07/09 05:17:45;;;;;;;4.20;0.60;;;;;;;-148.56;100.00;61375.16;5076677;28;20427;-31
2022/07/09 05:21:09;;;;;;;0.73;0.50;;;;;;;-148.56;100.00;61375.16;5077259;28;20059;-34
2022/07/09 05:24:33;;;;;;;0.70;0.50;;;;;;;-148.56;100.00;61375.16;5069745;28;20047;-35
2022/07/09 05:27:57;;;;;;;2.28;0.60;;;;;;;-148.56;100.00;61375.16;5080331;28;20031;-32
2022/07/09 05:31:21;;;;;;;0.80;0.60;;;;;;;-148.56;100.00;61375.16;5083810;28;20035;-33
2022/07/09 05:34:45;;;;;;;1.15;0.85;;;;;;;-148.56;100.00;61375.16;5078307;28;20035;-29
2022/07/09 05:38:09;;;;;;;0.90;0.50;;;;;;;-148.56;100.00;61375.16;5084566;28;20046;-30
2022/07/09 05:41:33;;;;;;;2.08;0.80;;;;;;;-148.56;100.00;61375.16;5078909;28;20046;-30
2022/07/09 05:44:57;;;;;;;1.48;0.63;;;;;;;-148.56;100.00;61375.16;5080768;28;20028;-32
2022/07/09 05:48:20;;;;;;;1.80;0.70;;;;;;;-148.56;100.00;61375.16;5080692;28;20095;-30
2022/07/09 05:51:45;;;;;;;0.77;0.68;;;;;;;-148.56;100.00;61375.16;5079695;28;20662;-29
2022/07/09 05:55:09;;;;;;;1.10;0.70;;;;;;;-148.56;100.00;61375.16;5074674;28;20036;-29
2022/07/09 05:58:33;;;;;;;1.10;0.65;;;;;;;-148.56;100.00;61375.16;5076571;28;20031;-30
2022/07/09 06:01:57;;;;;;;1.73;0.60;;;;;;;-148.56;100.00;61375.16;5071889;28;20845;-30
2022/07/09 06:05:20;;;;;;;4.13;1.38;;;;;;;-148.56;100.00;61375.16;5069090;28;20035;-32
2022/07/09 06:08:44;;;;;;;5.90;1.88;;;;;;;-148.56;100.00;61375.16;5064526;28;20059;-30
2022/07/09 06:12:08;;;;;;;7.68;1.90;;;;;;;-148.56;100.00;61375.16;5068033;28;20063;-31
2022/07/09 06:15:32;;;;;;;6.72;1.73;;;;;;;-148.56;100.00;61375.16;5064199;28;20020;-31
2022/07/09 06:18:56;;;;;;;4.95;1.92;;;;;;;-148.56;100.00;61375.16;5072103;28;20158;-28
2022/07/09 06:22:20;;;;;;;4.55;1.77;;;;;;;-148.56;100.00;61375.16;5072205;28;20031;-28
2022/07/09 06:25:44;;;;;;;7.40;2.30;;;;;;;-148.56;100.00;61375.16;5062712;28;20027;-29
2022/07/09 06:29:08;;;;;;;7.22;2.42;;;;;;;-148.56;100.00;61375.16;5068587;28;20039;-29
2022/07/09 06:32:32;;;;;;;7.53;2.42;;;;;;;-148.56;100.00;61375.16;5063876;28;20089;-31
2022/07/09 06:35:55;;;;;;;8.27;2.33;;;;;;;-148.56;100.00;61375.16;5064911;28;20132;-30
2022/07/09 06:43:05;;;;;;;9.18;2.33;;;;;;;-148.56;100.00;61375.16;5071651;28;20090;-28
2022/07/09 06:46:29;;;;;;;8.70;2.35;;;;;;;-148.56;100.00;61375.16;5066351;28;20039;-28
2022/07/09 06:49:53;;;;;;;9.07;2.38;;;;;;;-148.56;100.00;61375.16;5064722;28;20080;-29
2022/07/09 06:53:17;;;;;;;5.00;2.13;;;;;;;-148.56;100.00;61375.16;5070282;28;21985;-28
2022/07/09 06:56:41;;;;;;;4.88;1.95;;;;;;;-148.56;100.00;61375.16;5073928;28;20028;-28
2022/07/09 07:00:05;;;;;;;6.07;1.95;;;;;;;-148.56;100.00;61375.16;5076395;28;20039;-29
2022/07/09 07:03:29;;;;;;;5.03;1.92;;;;;;;-148.56;100.00;61375.16;5069702;28;20164;-32
2022/07/09 07:06:53;;;;;;;6.65;2.05;;;;;;;-148.56;100.00;61375.16;5078304;28;20024;-29
2022/07/09 07:10:17;;;;;;;5.68;1.98;;;;;;;-148.56;100.00;61375.16;5068082;28;20015;-29
2022/07/09 07:13:40;;;;;;;6.57;1.90;;;;;;;-148.56;100.00;61375.16;5066532;28;20123;-29
2022/07/09 07:17:05;;;;;;;6.15;2.03;;;;;;;-148.56;100.00;61375.16;5069302;28;20035;-29
2022/07/09 07:20:28;;;;;;;7.53;2.42;;;;;;;-148.56;100.00;61375.16;5057051;28;20961;-30
2022/07/09 07:23:52;;;;;;;6.10;1.95;;;;;;;-148.56;100.00;61375.16;5077537;28;20115;-30
2022/07/09 07:27:17;;;;;;;5.25;1.95;;;;;;;-148.56;100.00;61375.16;5073844;28;20028;-29
2022/07/09 07:30:41;;;;;;;6.13;2.20;;;;;;;-148.56;100.00;61375.16;5071082;28;20038;-30
2022/07/09 07:34:04;;;;;;;5.25;1.70;;;;;;;-148.56;100.00;61375.16;5067698;28;20509;-30
2022/07/09 07:37:28;;;;;;;5.68;2.03;;;;;;;-148.56;100.00;61375.16;5070308;28;20117;-35
2022/07/09 07:40:53;;;;;;;7.05;2.08;;;;;;;-148.56;100.00;61375.16;5072756;28;20035;-29
2022/07/09 07:44:16;;;;;;;6.30;2.25;;;;;;;-148.56;100.00;61375.16;5068423;28;20032;-32
2022/07/09 07:47:40;;;;;;;6.18;2.10;;;;;;;-148.56;100.00;61375.16;5070639;28;20118;-28
2022/07/09 07:51:04;;;;;;;7.40;2.08;;;;;;;-148.56;100.00;61375.16;5064538;28;20035;-32
2022/07/09 07:54:29;;;;;;;7.03;1.95;;;;;;;-148.56;100.00;61375.16;5076403;28;20128;-29
2022/07/09 07:57:53;;;;;;;5.85;2.00;;;;;;;-148.56;100.00;61375.16;5064231;28;20038;-30
2022/07/09 08:01:16;;;;;;;5.13;1.75;;;;;;;-148.56;100.00;61375.16;5066715;28;20532;-29
2022/07/09 08:04:40;;;;;;;11.00;2.30;;;;;;;-148.56;100.00;61375.16;5072084;28;20031;-29
2022/07/09 08:08:04;;;;;;;7.80;2.70;;;;;;;-148.56;100.00;61375.16;5068893;28;20043;-29
2022/07/09 08:11:28;;;;;;;7.85;2.28;;;;;;;-148.56;100.00;61375.16;5064965;28;20784;-29
2022/07/09 08:14:52;;;;;;;9.05;2.80;;;;;;;-148.56;100.00;61375.16;5069080;28;20039;-31
2022/07/09 08:18:16;;;;;;;7.65;1.95;;;;;;;-148.56;100.00;61375.16;5063787;28;20027;-31
2022/07/09 08:21:40;;;;;;;5.95;1.98;;;;;;;-148.56;100.00;61375.16;5064877;28;20123;-29
2022/07/09 08:25:04;;;;;;;5.07;2.13;;;;;;;-148.56;100.00;61375.16;5064808;28;20146;-30
2022/07/09 08:28:28;;;;;;;5.22;2.05;;;;;;;-148.56;100.00;61375.16;5074154;28;20075;-29
2022/07/09 08:31:52;;;;;;;6.25;1.60;;;;;;;-148.56;100.00;61375.16;5068798;28;20053;-30
2022/07/09 08:35:16;;;;;;;4.63;1.70;;;;;;;-148.56;100.00;61375.16;5057854;28;20045;-33
2022/07/09 08:38:39;;;;;;;7.18;1.73;;;;;;;-148.56;100.00;61375.16;5067411;28;20032;-30
2022/07/09 08:42:05;;;;;;;5.03;1.90;;;;;;;-148.56;100.00;61375.16;5074913;28;20028;-27
2022/07/09 08:45:29;;;;;;;5.40;1.95;;;;;;;-148.56;100.00;61375.16;5074834;28;20316;-29
2022/07/09 08:48:52;;;;;;;6.20;1.85;;;;;;;-148.56;100.00;61375.16;5048707;28;20085;-31
2022/07/09 08:52:16;;;;;;;6.00;1.90;;;;;;;-148.56;100.00;61375.16;5071123;28;20047;-29
2022/07/09 08:55:40;;;;;;;6.07;1.80;;;;;;;-148.56;100.00;61375.16;5060277;28;20039;-30
2022/07/09 08:59:04;;;;;;;8.93;1.90;;;;;;;-148.56;100.00;61375.16;5057843;28;20031;-30
2022/07/09 09:02:33;;;;;;;11.23;2.10;;;;;;;-148.56;100.00;61375.16;5078422;28;20031;-29
2022/07/09 09:06:04;;;;;;;8.30;1.70;;;;;;;-148.56;100.00;61375.16;5073835;28;20039;-29
2022/07/09 09:09:35;;;;;;;9.93;2.28;;;;;;;-148.56;100.00;61375.16;5073729;28;20557;-29
2022/07/09 09:13:00;;;;;;;8.82;2.17;;;;;;;-148.56;100.00;61375.16;5074641;28;20031;-29
2022/07/09 09:16:24;;;;;;;10.77;1.98;;;;;;;-148.56;100.00;61375.16;5075707;28;20043;-29
2022/07/09 09:19:48;;;;;;;10.75;2.15;;;;;;;-148.56;100.00;61375.16;5078681;28;20031;-29
2022/07/09 09:23:16;;;;;;;11.15;2.10;;;;;;;-148.56;100.00;61375.16;5084009;28;20114;-30
2022/07/09 09:26:39;;;;;;;11.23;1.90;;;;;;;-148.56;100.00;61375.16;5078206;28;20197;-29
2022/07/09 09:30:04;;;;;;;8.07;2.30;;;;;;;-148.56;100.00;61375.16;5066363;28;20028;-29
2022/07/09 09:33:27;;;;;;;7.10;2.10;;;;;;;-148.56;100.00;61375.16;5080581;28;20019;-34
2022/07/09 09:36:52;;;;;;;10.90;2.33;;;;;;;-148.56;100.00;61375.16;5072308;28;20576;-29
2022/07/09 09:40:25;;;;;;;9.60;2.00;;;;;;;-148.56;100.00;61375.16;5079477;28;20066;-29
2022/07/09 09:43:49;;;;;;;7.22;1.88;;;;;;;-148.56;100.00;61375.16;5075093;28;20426;-29
2022/07/09 09:47:13;;;;;;;4.85;1.65;;;;;;;-148.56;100.00;61375.16;5060015;28;20024;-29
2022/07/09 09:50:37;;;;;;;7.03;2.00;;;;;;;-148.56;100.00;61375.16;5076184;28;20643;-32
2022/07/09 09:54:01;;;;;;;5.78;2.00;;;;;;;-148.56;100.00;61375.16;5065570;28;20031;-29
2022/07/09 09:57:27;;;;;;;8.52;1.88;;;;;;;-148.56;100.00;61375.16;5063039;28;20035;-29
2022/07/09 10:00:51;;;;;;;8.32;1.70;;;;;;;-148.56;100.00;61375.16;5060022;28;20136;-29
2022/07/09 10:04:15;;;;;;;5.80;1.58;;;;;;;-148.56;100.00;61375.16;5074471;28;20038;-29
2022/07/09 10:07:42;;;;;;;3.97;1.55;;;;;;;-148.56;100.00;61375.16;5084091;28;20051;-28
2022/07/09 10:11:06;;;;;;;5.95;1.60;;;;;;;-148.56;100.00;61375.16;5083743;28;20659;-29
2022/07/09 10:14:31;;;;;;;4.15;1.80;;;;;;;-148.56;100.00;61375.16;5087791;28;20109;-31
2022/07/09 10:17:55;;;;;;;4.07;1.63;;;;;;;-148.56;100.00;61375.16;5086317;28;20134;-29
2022/07/09 10:21:32;;;;;;;4.70;1.60;;;;;;;-148.56;100.00;61375.16;5085159;28;20142;-29
2022/07/09 10:24:56;;;;;;;2.58;1.33;;;;;;;-148.56;100.00;61375.16;5086710;28;20568;-31
2022/07/09 10:28:20;;;;;;;3.70;1.50;;;;;;;-148.56;100.00;61375.16;5087754;28;20040;-29
2022/07/09 10:31:44;;;;;;;10.35;2.05;;;;;;;-148.56;100.00;61375.16;5082256;28;20655;-30
2022/07/09 10:35:08;;;;;;;7.80;1.60;;;;;;;-148.56;100.00;61375.16;5062597;28;20824;-29
2022/07/09 10:38:39;;;;;;;2.70;1.33;;;;;;;-148.56;100.00;61375.16;5077256;28;20070;-30
2022/07/09 10:42:03;;;;;;;3.13;1.40;;;;;;;-148.56;100.00;61375.16;5077869;28;20930;-29
2022/07/09 10:45:34;;;;;;;3.83;1.42;;;;;;;-148.56;100.00;61375.16;5078959;28;20291;-30
2022/07/09 10:48:58;;;;;;;3.22;1.65;;;;;;;-148.56;100.00;61375.16;5077469;28;20115;-29
2022/07/09 10:52:22;;;;;;;4.25;1.50;;;;;;;-148.56;100.00;61375.16;5076544;28;20762;-30
2022/07/09 10:55:46;;;;;;;4.57;1.92;;;;;;;-148.56;100.00;61375.16;5070959;28;20142;-29
2022/07/09 10:59:18;;;;;;;1.73;1.20;;;;;;;-148.56;100.00;61375.16;5080082;28;20097;-31
2022/07/09 11:02:51;;;;;;;3.00;1.30;;;;;;;-148.56;100.00;61375.16;5072864;28;20059;-28
2022/07/09 11:06:15;;;;;;;3.63;1.48;;;;;;;-148.56;100.00;61375.16;5075236;28;20308;-29
2022/07/09 11:09:38;;;;;;;2.20;1.05;;;;;;;-148.56;100.00;61375.16;5078107;28;20027;-35
2022/07/09 11:13:03;;;;;;;3.38;1.10;;;;;;;-148.56;100.00;61375.16;5078732;28;20043;-30
2022/07/09 11:16:27;;;;;;;3.10;1.17;;;;;;;-148.56;100.00;61375.16;5077623;28;20028;-34
2022/07/09 11:19:51;;;;;;;3.20;1.48;;;;;;;-148.56;100.00;61375.16;5075467;28;20107;-30
2022/07/09 11:23:15;;;;;;;4.10;1.55;;;;;;;-148.56;100.00;61375.16;5063694;28;20031;-28
2022/07/09 11:26:40;;;;;;;1.83;1.10;;;;;;;-148.56;100.00;61375.16;5078559;28;20036;-29
2022/07/09 11:30:11;;;;;;;3.83;1.23;;;;;;;-148.56;100.00;61375.16;5079934;28;20581;-28
2022/07/09 11:37:27;;;;;;;3.65;1.10;;;;;;;-148.56;100.00;61375.16;5068188;28;20080;-28
2022/07/09 11:40:58;;;;;;;1.92;1.00;;;;;;;-148.56;100.00;61375.16;5080979;28;20120;-30
2022/07/09 11:44:26;;;;;;;2.75;1.13;;;;;;;-148.56;100.00;61375.16;5080058;28;20048;-32
2022/07/09 11:48:05;;;;;;;4.60;1.10;;;;;;;-148.56;100.00;61375.16;5080150;28;20024;-29
2022/07/09 11:51:33;;;;;;;1.75;1.00;;;;;;;-148.56;100.00;61375.16;5084907;28;20088;-31
2022/07/09 11:54:57;;;;;;;1.83;1.10;;;;;;;-148.56;100.00;61375.16;5083050;28;20089;-32
2022/07/09 11:58:21;;;;;;;3.05;1.20;;;;;;;-148.56;100.00;61375.16;5081113;28;20524;-33
2022/07/09 12:01:45;;;;;;;2.22;1.05;;;;;;;-148.56;100.00;61375.16;5088318;28;20119;-29
2022/07/09 12:05:23;;;;;;;3.90;1.35;;;;;;;-148.56;100.00;61375.16;5089290;28;20559;-32
2022/07/09 12:08:58;;;;;;;1.20;0.95;;;;;;;-148.56;100.00;61375.16;5085175;28;20039;-31
2022/07/09 12:12:25;;;;;;;1.58;1.00;;;;;;;-148.56;100.00;61375.16;5085978;28;20059;-33
2022/07/09 12:15:49;;;;;;;1.80;0.95;;;;;;;-148.56;100.00;61375.16;5089726;28;20089;-31
2022/07/09 12:19:13;;;;;;;1.38;0.93;;;;;;;-148.56;100.00;61375.16;5087943;28;20708;-40
2022/07/09 12:22:37;;;;;;;2.05;1.05;;;;;;;-148.56;100.00;61375.16;5085524;28;20023;-33
2022/07/09 12:26:01;;;;;;;2.05;1.10;;;;;;;-148.56;100.00;61375.16;5087932;28;20772;-32
2022/07/09 12:29:25;;;;;;;2.15;1.10;;;;;;;-148.56;100.00;61375.16;5087423;28;20019;-33
2022/07/09 12:32:49;;;;;;;2.60;1.08;;;;;;;-148.56;100.00;61375.16;5086995;28;20033;-31
2022/07/09 12:36:14;;;;;;;1.75;0.80;;;;;;;-148.56;100.00;61375.16;5088998;28;20028;-34
2022/07/09 12:39:38;;;;;;;1.30;0.73;;;;;;;-148.56;100.00;61375.16;5091208;28;20490;-33
2022/07/09 12:43:02;;;;;;;2.22;0.90;;;;;;;-148.56;100.00;61375.16;5083581;28;20040;-33
2022/07/09 12:46:25;;;;;;;1.73;0.80;;;;;;;-148.56;100.00;61375.16;5088239;28;20115;-34
2022/07/09 12:49:49;;;;;;;2.08;0.95;;;;;;;-148.56;100.00;61375.16;5086360;28;20779;-31
2022/07/09 12:53:13;;;;;;;1.30;0.82;;;;;;;-148.56;100.00;61375.16;5088870;28;20039;-30
2022/07/09 12:56:37;;;;;;;1.85;0.90;;;;;;;-148.56;100.00;61375.16;5086664;28;20024;-32
2022/07/09 13:00:02;;;;;;;2.85;1.00;;;;;;;-148.56;100.00;61375.16;5088523;28;20038;-32
2022/07/09 13:03:26;;;;;;;0.98;0.57;;;;;;;-148.56;100.00;61375.16;5086376;28;20036;-31
2022/07/09 13:06:49;;;;;;;1.25;0.77;;;;;;;-148.56;100.00;61375.16;5082483;28;20035;-31
2022/07/09 13:10:13;;;;;;;1.27;0.80;;;;;;;-148.56;100.00;61375.16;5087436;28;20028;-31
2022/07/09 13:13:37;;;;;;;0.95;0.70;;;;;;;-148.56;100.00;61375.16;5086571;28;21006;-30
2022/07/09 13:17:01;;;;;;;1.45;0.65;;;;;;;-148.56;100.00;61375.16;5085750;28;20086;-30
2022/07/09 13:20:25;;;;;;;1.25;0.70;;;;;;;-148.56;100.00;61375.16;5087891;28;20143;-29
2022/07/09 13:23:49;;;;;;;0.77;0.60;;;;;;;-148.56;100.00;61375.16;5085966;28;20630;-31
2022/07/09 13:27:13;;;;;;;0.80;0.60;;;;;;;-148.56;100.00;61375.16;5090035;28;20100;-29
2022/07/09 13:30:37;;;;;;;1.63;0.88;;;;;;;-148.56;100.00;61375.16;5084030;28;20573;-33
2022/07/09 13:34:01;;;;;;;1.77;0.85;;;;;;;-148.56;100.00;61375.16;5086041;28;20042;-31
2022/07/09 13:37:25;;;;;;;1.05;0.75;;;;;;;-148.56;100.00;61375.16;5085655;28;20040;-29
2022/07/09 13:40:48;;;;;;;1.70;0.90;;;;;;;-148.56;100.00;61375.16;5086283;28;20367;-30
2022/07/09 13:44:12;;;;;;;0.73;0.60;;;;;;;-148.56;100.00;61375.16;5085852;28;20061;-30
2022/07/09 13:47:36;;;;;;;1.48;0.90;;;;;;;-148.56;100.00;61375.16;5091360;28;20251;-31
2022/07/09 13:51:00;;;;;;;1.63;0.50;;;;;;;-148.56;100.00;61375.16;5089481;28;20016;-31
2022/07/09 13:54:24;;;;;;;2.30;1.10;;;;;;;-148.56;100.00;61375.16;5084857;28;20038;-30
2022/07/09 13:57:48;;;;;;;0.75;0.70;;;;;;;-148.56;100.00;61375.16;5088623;28;20032;-29
2022/07/09 14:01:12;;;;;;;1.60;0.77;;;;;;;-148.56;100.00;61375.16;5089595;28;20042;-29
2022/07/09 14:04:36;;;;;;;2.38;0.70;;;;;;;-148.56;100.00;61375.16;5088787;28;20872;-29
2022/07/09 14:07:59;;;;;;;1.20;0.65;;;;;;;-148.56;100.00;61375.16;5089795;28;20035;-29
2022/07/09 14:11:23;;;;;;;1.10;0.75;;;;;;;-148.56;100.00;61375.16;5081352;28;20579;-29
2022/07/09 14:14:47;;;;;;;0.82;0.63;;;;;;;-148.56;100.00;61375.16;5086527;28;20067;-31
2022/07/09 14:18:11;;;;;;;1.00;0.70;;;;;;;-148.56;100.00;61375.16;5089256;28;20036;-31
2022/07/09 14:21:35;;;;;;;0.45;0.45;;;;;;;-148.56;100.00;61375.16;5089114;28;20031;-29
2022/07/09 14:24:59;;;;;;;0.47;0.47;;;;;;;-148.56;100.00;61375.16;5088284;28;20077;-31
2022/07/09 14:28:22;;;;;;;0.90;0.55;;;;;;;-148.56;100.00;61375.16;5087123;28;20032;-27
2022/07/09 14:31:46;;;;;;;0.65;0.57;;;;;;;-148.56;100.00;61375.16;5089325;28;20199;-29
2022/07/09 14:35:10;;;;;;;0.70;0.50;;;;;;;-148.56;100.00;61375.16;5089516;28;20031;-32
2022/07/09 14:38:34;;;;;;;0.65;0.50;;;;;;;-148.56;100.00;61375.16;5089909;28;20032;-29
2022/07/09 14:41:58;;;;;;;0.47;0.30;;;;;;;-148.56;100.00;61375.16;5089062;28;20800;-32
2022/07/09 14:45:25;;;;;;;1.50;0.70;;;;;;;-148.56;100.00;61375.16;5086796;28;20037;-30
2022/07/09 14:48:49;;;;;;;0.77;0.43;;;;;;;-148.56;100.00;61375.16;5086718;28;20031;-30
2022/07/09 14:52:14;;;;;;;1.23;0.65;;;;;;;-148.56;100.00;61375.16;5088464;28;20452;-29
2022/07/09 14:55:38;;;;;;;0.60;0.52;;;;;;;-148.56;100.00;61375.16;5090243;28;20392;-31
2022/07/09 14:59:01;;;;;;;2.05;0.60;;;;;;;-148.56;100.00;61375.16;5085958;28;20035;-30
2022/07/09 15:02:25;;;;;;;0.85;0.55;;;;;;;-148.56;100.00;61375.16;5088788;28;20028;-31
2022/07/09 15:05:49;;;;;;;0.50;0.50;;;;;;;-148.56;100.00;61375.16;5088548;28;20034;-25
2022/07/09 15:09:13;;;;;;;0.73;0.55;;;;;;;-148.56;100.00;61375.16;5088519;28;20490;-29
2022/07/09 15:12:37;;;;;;;0.47;0.45;;;;;;;-148.56;100.00;61375.16;5091415;28;20731;-30
2022/07/09 15:16:01;;;;;;;0.57;0.50;;;;;;;-148.56;100.00;61375.16;5087877;28;20599;-33
2022/07/09 15:19:25;;;;;;;0.50;0.40;;;;;;;-148.56;100.00;61375.16;5084518;28;20036;-31
2022/07/09 15:22:49;;;;;;;0.50;0.50;;;;;;;-148.56;100.00;61375.16;5086601;28;20035;-31
2022/07/09 15:26:13;;;;;;;0.90;0.40;;;;;;;-148.56;100.00;61375.16;5078200;28;20050;-31
2022/07/09 15:29:37;;;;;;;0.50;0.50;;;;;;;-148.56;100.00;61375.16;5090947;28;20028;-32
2022/07/09 15:33:01;;;;;;;0.60;0.50;;;;;;;-148.56;100.00;61375.16;5084720;28;20038;-28
2022/07/09 15:36:25;;;;;;;0.38;0.38;;;;;;;-148.56;100.00;61375.16;5087992;28;20115;-29